Fukuyoshimaru No.1 — JD3996 — position and weather

sailwx.info

Track history (hours):
 
Tides and Currents Weather Stations Pressure Air Temp Water Temp Dewpoint Dewpoint Depression Visibility Wind Speed Wind Dir Waves Ship Positions

Fukuyoshimaru No.1

Last reported at 2017-Dec-11 13:14 UTC. Time now 2017-Dec-12 15:52 UTC.
Position N 33°53' E 135°00'.

Length 76 m; draft 3 m.

Type: Cargo ship. MMSI: 431007528.

Date/timePositionNaut miles runAvg speedWind from/ knotsBaromVisibWave heightAir tempDewpointWater temp
2017-Dec-11 13:14N 33°53' E 135°00'312.3
2017-Dec-11 13:00N 33°55' E 134°59'612.2
2017-Dec-11 12:30N 34°01' E 134°59'612.6
2017-Dec-11 12:00N 34°08' E 134°59'713.3
2017-Dec-11 11:30N 34°14' E 134°59'713.7
2017-Dec-11 11:00N 34°21' E 134°59'612.8
2017-Dec-11 10:30N 34°27' E 135°02'612.5
2017-Dec-11 10:01N 34°33' E 135°03'510.8
2017-Dec-11 09:30N 34°37' E 134°58'611.3
2017-Dec-11 09:00N 34°38' E 134°52'612.1
2017-Dec-11 08:30N 34°41' E 134°45'711.4
2017-Dec-11 07:53N 34°46' E 134°39'1 0.1
2017-Dec-11 00:37N 34°46' E 134°40'0 0.0
2017-Dec-11 00:18N 34°46' E 134°40'0 0.0
2017-Dec-10 23:51N 34°46' E 134°40'0 0.0
2017-Dec-10 23:30N 34°46' E 134°40'0 0.0
2017-Dec-10 22:48N 34°46' E 134°40'0 0.0
2017-Dec-10 22:30N 34°46' E 134°40'0 0.4
2017-Dec-10 22:00N 34°46' E 134°39'0 0.2
2017-Dec-10 21:30N 34°46' E 134°39'3 6.0
2017-Dec-10 21:00N 34°44' E 134°41'612.1
2017-Dec-10 20:30N 34°41' E 134°48'3 6.3
2017-Dec-10 20:00N 34°43' E 134°51'0 0.0
2017-Dec-10 19:30N 34°43' E 134°51'0 0.0
2017-Dec-10 19:00N 34°43' E 134°51'0 0.0
2017-Dec-10 18:30N 34°43' E 134°51'0 0.0
2017-Dec-10 18:00N 34°43' E 134°51'0 0.0
2017-Dec-10 17:30N 34°43' E 134°51'0 0.0
2017-Dec-10 17:00N 34°43' E 134°51'0 0.0
2017-Dec-10 16:30N 34°43' E 134°51'0 0.0
2017-Dec-10 16:00N 34°43' E 134°51'0 0.0
2017-Dec-10 15:30N 34°43' E 134°51'0 0.0
2017-Dec-10 15:00N 34°43' E 134°51'0 0.0
2017-Dec-10 14:30N 34°43' E 134°51'0 0.0
2017-Dec-10 14:00N 34°43' E 134°51'0 0.0
2017-Dec-10 13:30N 34°43' E 134°51'0 0.0
2017-Dec-10 13:00N 34°43' E 134°51'0 0.0
2017-Dec-10 12:30N 34°43' E 134°51'0 0.0
2017-Dec-10 12:00N 34°43' E 134°51'0 0.0
2017-Dec-10 11:30N 34°43' E 134°51'0 0.0
2017-Dec-10 11:00N 34°43' E 134°51'0 0.0
2017-Dec-10 10:30N 34°43' E 134°51'0 0.0
2017-Dec-10 10:00N 34°43' E 134°51'0 0.0
2017-Dec-10 09:30N 34°43' E 134°51'0 0.0
2017-Dec-10 09:00N 34°43' E 134°51'0 0.0
2017-Dec-10 08:30N 34°43' E 134°51'0 0.0
2017-Dec-10 08:00N 34°43' E 134°51'0 0.0
2017-Dec-10 07:30N 34°43' E 134°51'0 0.0
2017-Dec-10 07:00N 34°43' E 134°51'0 0.0
2017-Dec-10 06:30N 34°43' E 134°51'0 0.0
2017-Dec-10 06:00N 34°43' E 134°51'0 0.0
2017-Dec-10 05:30N 34°43' E 134°51'0 0.0
2017-Dec-10 05:00N 34°43' E 134°51'0 0.0
2017-Dec-10 04:29N 34°43' E 134°51'0 0.0
2017-Dec-10 04:00N 34°43' E 134°51'0 0.0
2017-Dec-10 03:30N 34°43' E 134°51'0 0.0
2017-Dec-10 03:00N 34°43' E 134°51'0 0.0
2017-Dec-10 02:30N 34°43' E 134°51'0 0.0
2017-Dec-10 02:00N 34°43' E 134°51'0 0.0
2017-Dec-10 01:30N 34°43' E 134°51'0 0.0
2017-Dec-10 01:00N 34°43' E 134°51'0 0.0
2017-Dec-10 00:30N 34°43' E 134°51'0 0.0
2017-Dec-10 00:00N 34°43' E 134°51'0 0.0
2017-Dec-09 23:30N 34°43' E 134°51'0 0.0
2017-Dec-09 23:00N 34°43' E 134°51'0 0.0
2017-Dec-09 22:30N 34°43' E 134°51'1 1.0
2017-Dec-09 22:00N 34°43' E 134°51'4 7.7
2017-Dec-09 21:30N 34°40' E 134°48'1 2.2
2017-Dec-09 21:00N 34°39' E 134°47'1 1.6
2017-Dec-09 20:30N 34°39' E 134°46'1 1.9
2017-Dec-09 20:00N 34°39' E 134°47'4 8.2
2017-Dec-09 19:30N 34°42' E 134°50'0 0.7
2017-Dec-09 19:00N 34°43' E 134°50'0 0.0
2017-Dec-09 18:28N 34°43' E 134°50'0 0.0
2017-Dec-09 18:00N 34°43' E 134°50'0 0.0
2017-Dec-09 17:30N 34°43' E 134°50'0 0.0
2017-Dec-09 16:59N 34°43' E 134°50'0 0.0
2017-Dec-09 16:30N 34°43' E 134°50'0 0.0
2017-Dec-09 16:00N 34°43' E 134°50'0 0.0
2017-Dec-09 15:30N 34°43' E 134°50'0 0.0
2017-Dec-09 15:00N 34°43' E 134°50'0 0.5
2017-Dec-09 14:30N 34°42' E 134°50'4 8.0
2017-Dec-09 14:00N 34°39' E 134°47'511.0
2017-Dec-09 13:30N 34°35' E 134°42'611.5
2017-Dec-09 13:00N 34°30' E 134°41'611.5
2017-Dec-09 12:30N 34°24' E 134°39'611.6
2017-Dec-09 12:00N 34°19' E 134°36'610.7
2017-Dec-09 11:24N 34°13' E 134°40'610.1
2017-Dec-09 10:52N 34°08' E 134°43'9 0.3
2017-Dec-08 06:39N 33°59' E 134°42'312.5
2017-Dec-08 06:26N 34°01' E 134°39'2 5.3
2017-Dec-08 06:00N 33°60' E 134°37'0 0.0
2017-Dec-08 05:30N 33°60' E 134°37'0 0.0
2017-Dec-08 05:00N 33°60' E 134°37'0 0.0
2017-Dec-08 04:30N 33°60' E 134°37'0 0.0
2017-Dec-08 04:00N 33°60' E 134°37'0 0.0
2017-Dec-08 03:30N 33°60' E 134°37'0 0.0
2017-Dec-08 03:00N 33°60' E 134°37'0 0.0
2017-Dec-08 02:29N 33°60' E 134°37'0 0.0
2017-Dec-08 02:00N 33°60' E 134°37'0 0.0
2017-Dec-08 01:18N 33°60' E 134°37'0 0.0
2017-Dec-08 01:00N 33°60' E 134°37'0 0.0
2017-Dec-08 00:30N 33°60' E 134°37'0 0.0
2017-Dec-07 23:57N 33°60' E 134°37'0 0.0
2017-Dec-07 23:02N 33°60' E 134°37'0 0.1
2017-Dec-07 21:59N 33°60' E 134°37'21210.1
2017-Dec-07 01:03N 34°34' E 138°49'112.8
2017-Dec-07 01:00N 34°34' E 138°50'612.2
2017-Dec-07 00:30N 34°36' E 138°57'612.4
2017-Dec-07 00:00N 34°40' E 139°03'712.0
2017-Dec-06 23:26N 34°44' E 139°10'1810.5
2017-Dec-06 21:45N 34°51' E 139°30'  
2017-Dec-03 12:53N 34°58' E 140°09'512.0
2017-Dec-03 12:27N 34°56' E 140°04'2311.8
2017-Dec-03 10:32N 34°50' E 139°37'112.5
2017-Dec-03 10:26N 34°50' E 139°35'712.5
2017-Dec-03 09:52N 34°50' E 139°27'713.0
2017-Dec-03 09:20N 34°49' E 139°18'613.4
2017-Dec-03 08:53N 34°45' E 139°13'813.1
2017-Dec-03 08:16N 34°39' E 139°05'311.1
2017-Dec-03 08:00N 34°38' E 139°02'611.0
2017-Dec-03 07:30N 34°35' E 138°57'1012.5
2017-Dec-03 06:42N 34°34' E 138°45'312.9
2017-Dec-03 06:30N 34°34' E 138°41'713.0
2017-Dec-03 05:59N 34°34' E 138°33'612.8
2017-Dec-03 05:30N 34°33' E 138°26'912.6
2017-Dec-03 04:49N 34°32' E 138°15'16510.7
2017-Dec-02 13:17N 33°51' E 135°02'412.5
2017-Dec-02 13:00N 33°55' E 135°01'612.7
2017-Dec-02 12:30N 34°01' E 135°00'612.3
2017-Dec-02 12:00N 34°07' E 134°59'612.1
2017-Dec-02 11:30N 34°13' E 134°59'611.6
2017-Dec-02 11:01N 34°19' E 134°58'611.6
2017-Dec-02 10:30N 34°23' E 135°03'612.3
2017-Dec-02 10:00N 34°26' E 135°09'612.0
2017-Dec-02 09:30N 34°31' E 135°14'612.2
2017-Dec-02 09:00N 34°35' E 135°19'611.6
2017-Dec-02 08:30N 34°39' E 135°25'3 6.6
2017-Dec-02 08:00N 34°38' E 135°29'0 0.1
2017-Dec-02 07:30N 34°38' E 135°29'0 0.0
2017-Dec-02 07:00N 34°38' E 135°29'0 0.0
2017-Dec-02 06:30N 34°38' E 135°29'0 0.0
2017-Dec-02 06:01N 34°38' E 135°29'0 0.0
2017-Dec-02 05:30N 34°38' E 135°29'0 0.0
2017-Dec-02 05:00N 34°38' E 135°29'0 0.0
2017-Dec-02 04:30N 34°38' E 135°29'0 0.0
2017-Dec-02 04:00N 34°38' E 135°29'0 0.0
2017-Dec-02 03:30N 34°38' E 135°29'0 0.0
2017-Dec-02 03:00N 34°38' E 135°29'0 0.0
2017-Dec-02 02:30N 34°38' E 135°29'0 0.0
2017-Dec-02 02:00N 34°38' E 135°29'0 0.0
2017-Dec-02 01:31N 34°38' E 135°29'0 0.0
2017-Dec-02 01:00N 34°38' E 135°29'2 3.2
2017-Dec-02 00:31N 34°38' E 135°27'4 7.4
2017-Dec-02 00:01N 34°37' E 135°22'0 0.0
2017-Dec-01 23:30N 34°37' E 135°22'0 0.0
2017-Dec-01 23:00N 34°37' E 135°22'0 0.0
2017-Dec-01 22:30N 34°37' E 135°22'0 0.0
2017-Dec-01 22:00N 34°37' E 135°22'0 0.0
2017-Dec-01 21:30N 34°37' E 135°22'0 0.1
2017-Dec-01 21:00N 34°37' E 135°22'0 0.0
2017-Dec-01 20:30N 34°37' E 135°22'0 0.0
2017-Dec-01 20:00N 34°37' E 135°22'0 0.0
2017-Dec-01 19:30N 34°37' E 135°22'0 0.0
2017-Dec-01 19:00N 34°37' E 135°22'0 0.0
2017-Dec-01 18:30N 34°37' E 135°22'0 0.0
2017-Dec-01 18:01N 34°37' E 135°22'0 0.0
2017-Dec-01 17:30N 34°37' E 135°22'0 0.0
2017-Dec-01 17:00N 34°37' E 135°22'0 0.0
2017-Dec-01 16:30N 34°37' E 135°22'0 0.0
2017-Dec-01 16:00N 34°37' E 135°22'0 0.0
2017-Dec-01 15:30N 34°37' E 135°22'0 0.0
2017-Dec-01 15:00N 34°37' E 135°22'0 0.0
2017-Dec-01 14:30N 34°37' E 135°22'0 0.0
2017-Dec-01 14:00N 34°37' E 135°22'0 0.0
2017-Dec-01 13:30N 34°37' E 135°22'  
Track history (hours):
 
Tides and Currents Weather Stations Pressure Air Temp Water Temp Dewpoint Dewpoint Depression Visibility Wind Speed Wind Dir Waves Ship Positions

Fukuyoshimaru No.1

Last reported at 2017-Dec-11 13:14 UTC. Time now 2017-Dec-12 15:52 UTC.
Position N 33°53' E 135°00'.

Length 76 m; draft 3 m.

Type: Cargo ship. MMSI: 431007528.

Date/timePositionNaut miles runAvg speedWind from/ knotsBaromVisibWave heightAir tempDewpointWater temp
2017-Dec-11 13:14N 33°53' E 135°00'312.3
2017-Dec-11 13:00N 33°55' E 134°59'612.2
2017-Dec-11 12:30N 34°01' E 134°59'612.6
2017-Dec-11 12:00N 34°08' E 134°59'713.3
2017-Dec-11 11:30N 34°14' E 134°59'713.7
2017-Dec-11 11:00N 34°21' E 134°59'612.8
2017-Dec-11 10:30N 34°27' E 135°02'612.5
2017-Dec-11 10:01N 34°33' E 135°03'510.8
2017-Dec-11 09:30N 34°37' E 134°58'611.3
2017-Dec-11 09:00N 34°38' E 134°52'612.1
2017-Dec-11 08:30N 34°41' E 134°45'711.4
2017-Dec-11 07:53N 34°46' E 134°39'1 0.1
2017-Dec-11 00:37N 34°46' E 134°40'0 0.0
2017-Dec-11 00:18N 34°46' E 134°40'0 0.0
2017-Dec-10 23:51N 34°46' E 134°40'0 0.0
2017-Dec-10 23:30N 34°46' E 134°40'0 0.0
2017-Dec-10 22:48N 34°46' E 134°40'0 0.0
2017-Dec-10 22:30N 34°46' E 134°40'0 0.4
2017-Dec-10 22:00N 34°46' E 134°39'0 0.2
2017-Dec-10 21:30N 34°46' E 134°39'3 6.0
2017-Dec-10 21:00N 34°44' E 134°41'612.1
2017-Dec-10 20:30N 34°41' E 134°48'3 6.3
2017-Dec-10 20:00N 34°43' E 134°51'0 0.0
2017-Dec-10 19:30N 34°43' E 134°51'0 0.0
2017-Dec-10 19:00N 34°43' E 134°51'0 0.0
2017-Dec-10 18:30N 34°43' E 134°51'0 0.0
2017-Dec-10 18:00N 34°43' E 134°51'0 0.0
2017-Dec-10 17:30N 34°43' E 134°51'0 0.0
2017-Dec-10 17:00N 34°43' E 134°51'0 0.0
2017-Dec-10 16:30N 34°43' E 134°51'0 0.0
2017-Dec-10 16:00N 34°43' E 134°51'0 0.0
2017-Dec-10 15:30N 34°43' E 134°51'0 0.0
2017-Dec-10 15:00N 34°43' E 134°51'0 0.0
2017-Dec-10 14:30N 34°43' E 134°51'0 0.0
2017-Dec-10 14:00N 34°43' E 134°51'0 0.0
2017-Dec-10 13:30N 34°43' E 134°51'0 0.0
2017-Dec-10 13:00N 34°43' E 134°51'0 0.0
2017-Dec-10 12:30N 34°43' E 134°51'0 0.0
2017-Dec-10 12:00N 34°43' E 134°51'0 0.0
2017-Dec-10 11:30N 34°43' E 134°51'0 0.0
2017-Dec-10 11:00N 34°43' E 134°51'0 0.0
2017-Dec-10 10:30N 34°43' E 134°51'0 0.0
2017-Dec-10 10:00N 34°43' E 134°51'0 0.0
2017-Dec-10 09:30N 34°43' E 134°51'0 0.0
2017-Dec-10 09:00N 34°43' E 134°51'0 0.0
2017-Dec-10 08:30N 34°43' E 134°51'0 0.0
2017-Dec-10 08:00N 34°43' E 134°51'0 0.0
2017-Dec-10 07:30N 34°43' E 134°51'0 0.0
2017-Dec-10 07:00N 34°43' E 134°51'0 0.0
2017-Dec-10 06:30N 34°43' E 134°51'0 0.0
2017-Dec-10 06:00N 34°43' E 134°51'0 0.0
2017-Dec-10 05:30N 34°43' E 134°51'0 0.0
2017-Dec-10 05:00N 34°43' E 134°51'0 0.0
2017-Dec-10 04:29N 34°43' E 134°51'0 0.0
2017-Dec-10 04:00N 34°43' E 134°51'0 0.0
2017-Dec-10 03:30N 34°43' E 134°51'0 0.0
2017-Dec-10 03:00N 34°43' E 134°51'0 0.0
2017-Dec-10 02:30N 34°43' E 134°51'0 0.0
2017-Dec-10 02:00N 34°43' E 134°51'0 0.0
2017-Dec-10 01:30N 34°43' E 134°51'0 0.0
2017-Dec-10 01:00N 34°43' E 134°51'0 0.0
2017-Dec-10 00:30N 34°43' E 134°51'0 0.0
2017-Dec-10 00:00N 34°43' E 134°51'0 0.0
2017-Dec-09 23:30N 34°43' E 134°51'0 0.0
2017-Dec-09 23:00N 34°43' E 134°51'0 0.0
2017-Dec-09 22:30N 34°43' E 134°51'1 1.0
2017-Dec-09 22:00N 34°43' E 134°51'4 7.7
2017-Dec-09 21:30N 34°40' E 134°48'1 2.2
2017-Dec-09 21:00N 34°39' E 134°47'1 1.6
2017-Dec-09 20:30N 34°39' E 134°46'1 1.9
2017-Dec-09 20:00N 34°39' E 134°47'4 8.2
2017-Dec-09 19:30N 34°42' E 134°50'0 0.7
2017-Dec-09 19:00N 34°43' E 134°50'0 0.0
2017-Dec-09 18:28N 34°43' E 134°50'0 0.0
2017-Dec-09 18:00N 34°43' E 134°50'0 0.0
2017-Dec-09 17:30N 34°43' E 134°50'0 0.0
2017-Dec-09 16:59N 34°43' E 134°50'0 0.0
2017-Dec-09 16:30N 34°43' E 134°50'0 0.0
2017-Dec-09 16:00N 34°43' E 134°50'0 0.0
2017-Dec-09 15:30N 34°43' E 134°50'0 0.0
2017-Dec-09 15:00N 34°43' E 134°50'0 0.5
2017-Dec-09 14:30N 34°42' E 134°50'4 8.0
2017-Dec-09 14:00N 34°39' E 134°47'511.0
2017-Dec-09 13:30N 34°35' E 134°42'611.5
2017-Dec-09 13:00N 34°30' E 134°41'611.5
2017-Dec-09 12:30N 34°24' E 134°39'611.6
2017-Dec-09 12:00N 34°19' E 134°36'610.7
2017-Dec-09 11:24N 34°13' E 134°40'610.1
2017-Dec-09 10:52N 34°08' E 134°43'9 0.3
2017-Dec-08 06:39N 33°59' E 134°42'312.5
2017-Dec-08 06:26N 34°01' E 134°39'2 5.3
2017-Dec-08 06:00N 33°60' E 134°37'0 0.0
2017-Dec-08 05:30N 33°60' E 134°37'0 0.0
2017-Dec-08 05:00N 33°60' E 134°37'0 0.0
2017-Dec-08 04:30N 33°60' E 134°37'0 0.0
2017-Dec-08 04:00N 33°60' E 134°37'0 0.0
2017-Dec-08 03:30N 33°60' E 134°37'0 0.0
2017-Dec-08 03:00N 33°60' E 134°37'0 0.0
2017-Dec-08 02:29N 33°60' E 134°37'0 0.0
2017-Dec-08 02:00N 33°60' E 134°37'0 0.0
2017-Dec-08 01:18N 33°60' E 134°37'0 0.0
2017-Dec-08 01:00N 33°60' E 134°37'0 0.0
2017-Dec-08 00:30N 33°60' E 134°37'0 0.0
2017-Dec-07 23:57N 33°60' E 134°37'0 0.0
2017-Dec-07 23:02N 33°60' E 134°37'0 0.1
2017-Dec-07 21:59N 33°60' E 134°37'21210.1
2017-Dec-07 01:03N 34°34' E 138°49'112.8
2017-Dec-07 01:00N 34°34' E 138°50'612.2
2017-Dec-07 00:30N 34°36' E 138°57'612.4
2017-Dec-07 00:00N 34°40' E 139°03'712.0
2017-Dec-06 23:26N 34°44' E 139°10'1810.5
2017-Dec-06 21:45N 34°51' E 139°30'  
2017-Dec-03 12:53N 34°58' E 140°09'512.0
2017-Dec-03 12:27N 34°56' E 140°04'2311.8
2017-Dec-03 10:32N 34°50' E 139°37'112.5
2017-Dec-03 10:26N 34°50' E 139°35'712.5
2017-Dec-03 09:52N 34°50' E 139°27'713.0
2017-Dec-03 09:20N 34°49' E 139°18'613.4
2017-Dec-03 08:53N 34°45' E 139°13'813.1
2017-Dec-03 08:16N 34°39' E 139°05'311.1
2017-Dec-03 08:00N 34°38' E 139°02'611.0
2017-Dec-03 07:30N 34°35' E 138°57'1012.5
2017-Dec-03 06:42N 34°34' E 138°45'312.9
2017-Dec-03 06:30N 34°34' E 138°41'713.0
2017-Dec-03 05:59N 34°34' E 138°33'612.8
2017-Dec-03 05:30N 34°33' E 138°26'912.6
2017-Dec-03 04:49N 34°32' E 138°15'16510.7
2017-Dec-02 13:17N 33°51' E 135°02'412.5
2017-Dec-02 13:00N 33°55' E 135°01'612.7
2017-Dec-02 12:30N 34°01' E 135°00'612.3
2017-Dec-02 12:00N 34°07' E 134°59'612.1
2017-Dec-02 11:30N 34°13' E 134°59'611.6
2017-Dec-02 11:01N 34°19' E 134°58'611.6
2017-Dec-02 10:30N 34°23' E 135°03'612.3
2017-Dec-02 10:00N 34°26' E 135°09'612.0
2017-Dec-02 09:30N 34°31' E 135°14'612.2
2017-Dec-02 09:00N 34°35' E 135°19'611.6
2017-Dec-02 08:30N 34°39' E 135°25'3 6.6
2017-Dec-02 08:00N 34°38' E 135°29'0 0.1
2017-Dec-02 07:30N 34°38' E 135°29'0 0.0
2017-Dec-02 07:00N 34°38' E 135°29'0 0.0
2017-Dec-02 06:30N 34°38' E 135°29'0 0.0
2017-Dec-02 06:01N 34°38' E 135°29'0 0.0
2017-Dec-02 05:30N 34°38' E 135°29'0 0.0
2017-Dec-02 05:00N 34°38' E 135°29'0 0.0
2017-Dec-02 04:30N 34°38' E 135°29'0 0.0
2017-Dec-02 04:00N 34°38' E 135°29'0 0.0
2017-Dec-02 03:30N 34°38' E 135°29'0 0.0
2017-Dec-02 03:00N 34°38' E 135°29'0 0.0
2017-Dec-02 02:30N 34°38' E 135°29'0 0.0
2017-Dec-02 02:00N 34°38' E 135°29'0 0.0
2017-Dec-02 01:31N 34°38' E 135°29'0 0.0
2017-Dec-02 01:00N 34°38' E 135°29'2 3.2
2017-Dec-02 00:31N 34°38' E 135°27'4 7.4
2017-Dec-02 00:01N 34°37' E 135°22'0 0.0
2017-Dec-01 23:30N 34°37' E 135°22'0 0.0
2017-Dec-01 23:00N 34°37' E 135°22'0 0.0
2017-Dec-01 22:30N 34°37' E 135°22'0 0.0
2017-Dec-01 22:00N 34°37' E 135°22'0 0.0
2017-Dec-01 21:30N 34°37' E 135°22'0 0.1
2017-Dec-01 21:00N 34°37' E 135°22'0 0.0
2017-Dec-01 20:30N 34°37' E 135°22'0 0.0
2017-Dec-01 20:00N 34°37' E 135°22'0 0.0
2017-Dec-01 19:30N 34°37' E 135°22'0 0.0
2017-Dec-01 19:00N 34°37' E 135°22'0 0.0
2017-Dec-01 18:30N 34°37' E 135°22'0 0.0
2017-Dec-01 18:01N 34°37' E 135°22'0 0.0
2017-Dec-01 17:30N 34°37' E 135°22'0 0.0
2017-Dec-01 17:00N 34°37' E 135°22'0 0.0
2017-Dec-01 16:30N 34°37' E 135°22'0 0.0
2017-Dec-01 16:00N 34°37' E 135°22'0 0.0
2017-Dec-01 15:30N 34°37' E 135°22'0 0.0
2017-Dec-01 15:00N 34°37' E 135°22'0 0.0
2017-Dec-01 14:30N 34°37' E 135°22'0 0.0
2017-Dec-01 14:00N 34°37' E 135°22'0 0.0
2017-Dec-01 13:30N 34°37' E 135°22'  

Dump ship's entire track history